Bentago Express — EHYG — position and weather

sailwx.info

Track history (hours):
 
Tides and Currents Weather Stations Pressure Air Temp Water Temp Dewpoint Dewpoint Depression Visibility Wind Speed Wind Dir Waves Ship Positions

Bentago Express

Last reported at 2017-Dec-15 20:28 UTC. Time now 2017-Dec-16 01:45 UTC.
Position N 28°21' W 016°04'.

Length 96 m; draft 3.8 m.

Type: High speed craft. MMSI: 224689000.

Date/timePositionNaut miles runAvg speedWind from/ knotsBaromVisibWave heightAir tempDewpointWater temp
2017-Dec-15 20:28N 28°21' W 016°04'1226.2
2017-Dec-15 20:01N 28°28' W 016°15'0 0.6
2017-Dec-15 19:30N 28°28' W 016°15'510.4
2017-Dec-15 19:00N 28°26' W 016°10'8 3.6
2017-Dec-15 16:45N 28°20' W 016°03'832.7
2017-Dec-15 16:30N 28°25' W 016°09'511.0
2017-Dec-15 16:01N 28°28' W 016°15'0 0.3
2017-Dec-15 15:30N 28°28' W 016°15'12 3.9
2017-Dec-15 12:33N 28°21' W 016°04'230.7
2017-Dec-15 12:30N 28°23' W 016°06'1020.0
2017-Dec-15 12:00N 28°28' W 016°15'0 0.0
2017-Dec-15 11:29N 28°28' W 016°15'3 6.4
2017-Dec-15 11:01N 28°27' W 016°12'10 3.9
2017-Dec-15 08:31N 28°21' W 016°03'331.9
2017-Dec-15 08:26N 28°23' W 016°06'1023.0
2017-Dec-15 08:00N 28°28' W 016°15'0 0.0
2017-Dec-15 07:30N 28°28' W 016°15'816.3
2017-Dec-15 07:00N 28°24' W 016°07'5 0.4
2017-Dec-14 16:34N 28°19' W 016°03'232.7
2017-Dec-14 16:31N 28°21' W 016°05'1223.2
2017-Dec-14 16:00N 28°28' W 016°15'7 7.1
2017-Dec-14 15:00N 28°25' W 016°08'6 2.4
2017-Dec-14 12:35N 28°21' W 016°03'229.5
2017-Dec-14 12:30N 28°22' W 016°05'1021.0
2017-Dec-14 12:00N 28°28' W 016°15'0 0.0
2017-Dec-14 11:30N 28°28' W 016°15'1 3.0
2017-Dec-14 11:00N 28°28' W 016°13'11 4.4
2017-Dec-14 08:33N 28°21' W 016°04'132.1
2017-Dec-14 08:30N 28°22' W 016°05'1121.1
2017-Dec-14 08:00N 28°28' W 016°15'0 0.0
2017-Dec-14 07:30N 28°28' W 016°15'12 1.1
2017-Dec-13 20:25N 28°21' W 016°04'1229.4
2017-Dec-13 20:00N 28°29' W 016°14'1 1.6
2017-Dec-13 19:30N 28°28' W 016°15'1 2.9
2017-Dec-13 19:00N 28°28' W 016°13'14 6.1
2017-Dec-13 16:45N 28°19' W 016°02'731.7
2017-Dec-13 16:30N 28°24' W 016°08'714.8
2017-Dec-13 16:01N 28°28' W 016°15'1 1.0
2017-Dec-13 15:30N 28°29' W 016°14'15 5.1
2017-Dec-13 12:38N 28°19' W 016°02'428.2
2017-Dec-13 12:29N 28°22' W 016°05'1122.3
2017-Dec-13 12:01N 28°28' W 016°15'0 0.4
2017-Dec-13 11:30N 28°28' W 016°15'3 5.1
2017-Dec-13 11:00N 28°27' W 016°12'12 5.6
2017-Dec-13 08:47N 28°19' W 016°02'829.4
2017-Dec-13 08:31N 28°24' W 016°08'713.6
2017-Dec-13 08:00N 28°28' W 016°15'1 1.7
2017-Dec-13 07:30N 28°28' W 016°14'11 1.1
2017-Dec-12 20:37N 28°21' W 016°04'430.9
2017-Dec-12 20:30N 28°23' W 016°07'917.5
2017-Dec-12 20:00N 28°28' W 016°15'0 0.0
2017-Dec-12 19:30N 28°28' W 016°15'3 5.0
2017-Dec-12 19:00N 28°27' W 016°12'14 5.7
2017-Dec-12 16:37N 28°18' W 016°01'631.5
2017-Dec-12 16:27N 28°22' W 016°05'1024.0
2017-Dec-12 16:00N 28°28' W 016°15'0 0.1
2017-Dec-12 15:30N 28°28' W 016°15'713.1
2017-Dec-12 15:00N 28°26' W 016°08'6 2.3
2017-Dec-12 12:27N 28°21' W 016°03'1227.4
2017-Dec-12 12:00N 28°29' W 016°14'1 1.1
2017-Dec-12 11:30N 28°28' W 016°15'4 7.6
2017-Dec-12 11:00N 28°27' W 016°11'11 4.6
2017-Dec-12 08:44N 28°19' W 016°02'729.6
2017-Dec-12 08:30N 28°24' W 016°08'714.4
2017-Dec-12 08:00N 28°28' W 016°15'2 3.2
2017-Dec-12 07:30N 28°29' W 016°13'11 1.0
2017-Dec-11 20:24N 28°22' W 016°04'1128.6
2017-Dec-11 20:00N 28°29' W 016°14'1 1.2
2017-Dec-11 19:30N 28°28' W 016°15'1 2.8
2017-Dec-11 19:00N 28°29' W 016°13'7 2.8
2017-Dec-11 16:22N 28°24' W 016°07'822.4
2017-Dec-11 16:00N 28°28' W 016°15'0 0.0
2017-Dec-11 15:30N 28°28' W 016°15'612.9
2017-Dec-11 15:00N 28°25' W 016°08'4 1.7
2017-Dec-11 12:25N 28°22' W 016°05'1126.7
2017-Dec-11 12:00N 28°29' W 016°14'1 1.0
2017-Dec-11 11:31N 28°28' W 016°15'1 3.0
2017-Dec-11 11:01N 28°28' W 016°13'12 5.0
2017-Dec-11 08:32N 28°21' W 016°02'132.0
2017-Dec-11 08:31N 28°21' W 016°03'1224.6
2017-Dec-11 08:00N 28°28' W 016°15'0 0.0
2017-Dec-11 07:30N 28°28' W 016°15'510.8
2017-Dec-11 07:01N 28°26' W 016°09'6 0.6
2017-Dec-10 20:45N 28°21' W 016°04'835.1
2017-Dec-10 20:31N 28°27' W 016°12'3 6.3
2017-Dec-10 20:01N 28°28' W 016°15'0 0.0
2017-Dec-10 19:31N 28°28' W 016°15'612.1
2017-Dec-10 19:00N 28°26' W 016°09'9 3.8
2017-Dec-10 16:34N 28°18' W 016°02'433.6
2017-Dec-10 16:26N 28°21' W 016°05'1125.5
2017-Dec-10 16:01N 28°28' W 016°15'0 0.2
2017-Dec-10 15:30N 28°28' W 016°15'1 2.0
2017-Dec-10 15:01N 28°29' W 016°14'16 6.5
2017-Dec-10 12:35N 28°18' W 016°01'434.2
2017-Dec-10 12:29N 28°20' W 016°04'1226.4
2017-Dec-10 12:01N 28°28' W 016°15'0 0.2
2017-Dec-10 11:31N 28°28' W 016°15'0 0.0
2017-Dec-10 11:00N 28°28' W 016°15'0 0.0
2017-Dec-10 10:30N 28°28' W 016°15'1 1.9
2017-Dec-10 10:00N 28°29' W 016°14'12 0.9
2017-Dec-09 20:24N 28°21' W 016°04'1231.4
2017-Dec-09 20:00N 28°29' W 016°14'1 1.2
2017-Dec-09 19:30N 28°28' W 016°15'1 2.3
2017-Dec-09 19:01N 28°29' W 016°14'11 4.3
2017-Dec-09 16:27N 28°21' W 016°04'1126.2
2017-Dec-09 16:01N 28°28' W 016°15'0 0.6
2017-Dec-09 15:31N 28°28' W 016°15'0 0.0
2017-Dec-09 15:01N 28°28' W 016°15'0 0.0
2017-Dec-09 14:31N 28°28' W 016°15'0 0.0
2017-Dec-09 14:01N 28°28' W 016°15'0 0.0
2017-Dec-09 13:31N 28°28' W 016°15'0 0.0
2017-Dec-09 13:01N 28°28' W 016°15'0 0.0
2017-Dec-09 12:31N 28°28' W 016°15'0 0.0
2017-Dec-09 12:01N 28°28' W 016°15'0 0.0
2017-Dec-09 11:31N 28°28' W 016°15'0 0.0
2017-Dec-09 11:01N 28°28' W 016°15'0 0.0
2017-Dec-09 10:31N 28°28' W 016°15'0 0.0
2017-Dec-09 10:00N 28°28' W 016°15'4 8.1
2017-Dec-09 09:30N 28°27' W 016°10'4 0.3
2017-Dec-08 20:19N 28°24' W 016°07'825.8
2017-Dec-08 20:00N 28°28' W 016°15'0 0.1
2017-Dec-08 19:30N 28°28' W 016°15'612.2
2017-Dec-08 19:01N 28°26' W 016°09'5 0.6
2017-Dec-08 11:01N 28°22' W 016°05'132.3
2017-Dec-08 11:00N 28°22' W 016°05'1020.7
2017-Dec-08 10:30N 28°28' W 016°15'0 0.0
2017-Dec-08 10:00N 28°28' W 016°15'510.6
2017-Dec-08 09:31N 28°25' W 016°10'4 0.3
2017-Dec-07 20:24N 28°23' W 016°06'1024.0
2017-Dec-07 20:01N 28°28' W 016°15'0 0.0
2017-Dec-07 19:30N 28°28' W 016°15'11 3.8
2017-Dec-07 16:38N 28°22' W 016°04'430.5
2017-Dec-07 16:31N 28°24' W 016°08'714.5
2017-Dec-07 16:01N 28°28' W 016°15'0 0.0
2017-Dec-07 15:30N 28°28' W 016°15'12 0.6
2017-Dec-06 20:31N 28°21' W 016°04'  
Track history (hours):
 
Tides and Currents Weather Stations Pressure Air Temp Water Temp Dewpoint Dewpoint Depression Visibility Wind Speed Wind Dir Waves Ship Positions

Bentago Express

Last reported at 2017-Dec-15 20:28 UTC. Time now 2017-Dec-16 01:45 UTC.
Position N 28°21' W 016°04'.

Length 96 m; draft 3.8 m.

Type: High speed craft. MMSI: 224689000.

Date/timePositionNaut miles runAvg speedWind from/ knotsBaromVisibWave heightAir tempDewpointWater temp
2017-Dec-15 20:28N 28°21' W 016°04'1226.2
2017-Dec-15 20:01N 28°28' W 016°15'0 0.6
2017-Dec-15 19:30N 28°28' W 016°15'510.4
2017-Dec-15 19:00N 28°26' W 016°10'8 3.6
2017-Dec-15 16:45N 28°20' W 016°03'832.7
2017-Dec-15 16:30N 28°25' W 016°09'511.0
2017-Dec-15 16:01N 28°28' W 016°15'0 0.3
2017-Dec-15 15:30N 28°28' W 016°15'12 3.9
2017-Dec-15 12:33N 28°21' W 016°04'230.7
2017-Dec-15 12:30N 28°23' W 016°06'1020.0
2017-Dec-15 12:00N 28°28' W 016°15'0 0.0
2017-Dec-15 11:29N 28°28' W 016°15'3 6.4
2017-Dec-15 11:01N 28°27' W 016°12'10 3.9
2017-Dec-15 08:31N 28°21' W 016°03'331.9
2017-Dec-15 08:26N 28°23' W 016°06'1023.0
2017-Dec-15 08:00N 28°28' W 016°15'0 0.0
2017-Dec-15 07:30N 28°28' W 016°15'816.3
2017-Dec-15 07:00N 28°24' W 016°07'5 0.4
2017-Dec-14 16:34N 28°19' W 016°03'232.7
2017-Dec-14 16:31N 28°21' W 016°05'1223.2
2017-Dec-14 16:00N 28°28' W 016°15'7 7.1
2017-Dec-14 15:00N 28°25' W 016°08'6 2.4
2017-Dec-14 12:35N 28°21' W 016°03'229.5
2017-Dec-14 12:30N 28°22' W 016°05'1021.0
2017-Dec-14 12:00N 28°28' W 016°15'0 0.0
2017-Dec-14 11:30N 28°28' W 016°15'1 3.0
2017-Dec-14 11:00N 28°28' W 016°13'11 4.4
2017-Dec-14 08:33N 28°21' W 016°04'132.1
2017-Dec-14 08:30N 28°22' W 016°05'1121.1
2017-Dec-14 08:00N 28°28' W 016°15'0 0.0
2017-Dec-14 07:30N 28°28' W 016°15'12 1.1
2017-Dec-13 20:25N 28°21' W 016°04'1229.4
2017-Dec-13 20:00N 28°29' W 016°14'1 1.6
2017-Dec-13 19:30N 28°28' W 016°15'1 2.9
2017-Dec-13 19:00N 28°28' W 016°13'14 6.1
2017-Dec-13 16:45N 28°19' W 016°02'731.7
2017-Dec-13 16:30N 28°24' W 016°08'714.8
2017-Dec-13 16:01N 28°28' W 016°15'1 1.0
2017-Dec-13 15:30N 28°29' W 016°14'15 5.1
2017-Dec-13 12:38N 28°19' W 016°02'428.2
2017-Dec-13 12:29N 28°22' W 016°05'1122.3
2017-Dec-13 12:01N 28°28' W 016°15'0 0.4
2017-Dec-13 11:30N 28°28' W 016°15'3 5.1
2017-Dec-13 11:00N 28°27' W 016°12'12 5.6
2017-Dec-13 08:47N 28°19' W 016°02'829.4
2017-Dec-13 08:31N 28°24' W 016°08'713.6
2017-Dec-13 08:00N 28°28' W 016°15'1 1.7
2017-Dec-13 07:30N 28°28' W 016°14'11 1.1
2017-Dec-12 20:37N 28°21' W 016°04'430.9
2017-Dec-12 20:30N 28°23' W 016°07'917.5
2017-Dec-12 20:00N 28°28' W 016°15'0 0.0
2017-Dec-12 19:30N 28°28' W 016°15'3 5.0
2017-Dec-12 19:00N 28°27' W 016°12'14 5.7
2017-Dec-12 16:37N 28°18' W 016°01'631.5
2017-Dec-12 16:27N 28°22' W 016°05'1024.0
2017-Dec-12 16:00N 28°28' W 016°15'0 0.1
2017-Dec-12 15:30N 28°28' W 016°15'713.1
2017-Dec-12 15:00N 28°26' W 016°08'6 2.3
2017-Dec-12 12:27N 28°21' W 016°03'1227.4
2017-Dec-12 12:00N 28°29' W 016°14'1 1.1
2017-Dec-12 11:30N 28°28' W 016°15'4 7.6
2017-Dec-12 11:00N 28°27' W 016°11'11 4.6
2017-Dec-12 08:44N 28°19' W 016°02'729.6
2017-Dec-12 08:30N 28°24' W 016°08'714.4
2017-Dec-12 08:00N 28°28' W 016°15'2 3.2
2017-Dec-12 07:30N 28°29' W 016°13'11 1.0
2017-Dec-11 20:24N 28°22' W 016°04'1128.6
2017-Dec-11 20:00N 28°29' W 016°14'1 1.2
2017-Dec-11 19:30N 28°28' W 016°15'1 2.8
2017-Dec-11 19:00N 28°29' W 016°13'7 2.8
2017-Dec-11 16:22N 28°24' W 016°07'822.4
2017-Dec-11 16:00N 28°28' W 016°15'0 0.0
2017-Dec-11 15:30N 28°28' W 016°15'612.9
2017-Dec-11 15:00N 28°25' W 016°08'4 1.7
2017-Dec-11 12:25N 28°22' W 016°05'1126.7
2017-Dec-11 12:00N 28°29' W 016°14'1 1.0
2017-Dec-11 11:31N 28°28' W 016°15'1 3.0
2017-Dec-11 11:01N 28°28' W 016°13'12 5.0
2017-Dec-11 08:32N 28°21' W 016°02'132.0
2017-Dec-11 08:31N 28°21' W 016°03'1224.6
2017-Dec-11 08:00N 28°28' W 016°15'0 0.0
2017-Dec-11 07:30N 28°28' W 016°15'510.8
2017-Dec-11 07:01N 28°26' W 016°09'6 0.6
2017-Dec-10 20:45N 28°21' W 016°04'835.1
2017-Dec-10 20:31N 28°27' W 016°12'3 6.3
2017-Dec-10 20:01N 28°28' W 016°15'0 0.0
2017-Dec-10 19:31N 28°28' W 016°15'612.1
2017-Dec-10 19:00N 28°26' W 016°09'9 3.8
2017-Dec-10 16:34N 28°18' W 016°02'433.6
2017-Dec-10 16:26N 28°21' W 016°05'1125.5
2017-Dec-10 16:01N 28°28' W 016°15'0 0.2
2017-Dec-10 15:30N 28°28' W 016°15'1 2.0
2017-Dec-10 15:01N 28°29' W 016°14'16 6.5
2017-Dec-10 12:35N 28°18' W 016°01'434.2
2017-Dec-10 12:29N 28°20' W 016°04'1226.4
2017-Dec-10 12:01N 28°28' W 016°15'0 0.2
2017-Dec-10 11:31N 28°28' W 016°15'0 0.0
2017-Dec-10 11:00N 28°28' W 016°15'0 0.0
2017-Dec-10 10:30N 28°28' W 016°15'1 1.9
2017-Dec-10 10:00N 28°29' W 016°14'12 0.9
2017-Dec-09 20:24N 28°21' W 016°04'1231.4
2017-Dec-09 20:00N 28°29' W 016°14'1 1.2
2017-Dec-09 19:30N 28°28' W 016°15'1 2.3
2017-Dec-09 19:01N 28°29' W 016°14'11 4.3
2017-Dec-09 16:27N 28°21' W 016°04'1126.2
2017-Dec-09 16:01N 28°28' W 016°15'0 0.6
2017-Dec-09 15:31N 28°28' W 016°15'0 0.0
2017-Dec-09 15:01N 28°28' W 016°15'0 0.0
2017-Dec-09 14:31N 28°28' W 016°15'0 0.0
2017-Dec-09 14:01N 28°28' W 016°15'0 0.0
2017-Dec-09 13:31N 28°28' W 016°15'0 0.0
2017-Dec-09 13:01N 28°28' W 016°15'0 0.0
2017-Dec-09 12:31N 28°28' W 016°15'0 0.0
2017-Dec-09 12:01N 28°28' W 016°15'0 0.0
2017-Dec-09 11:31N 28°28' W 016°15'0 0.0
2017-Dec-09 11:01N 28°28' W 016°15'0 0.0
2017-Dec-09 10:31N 28°28' W 016°15'0 0.0
2017-Dec-09 10:00N 28°28' W 016°15'4 8.1
2017-Dec-09 09:30N 28°27' W 016°10'4 0.3
2017-Dec-08 20:19N 28°24' W 016°07'825.8
2017-Dec-08 20:00N 28°28' W 016°15'0 0.1
2017-Dec-08 19:30N 28°28' W 016°15'612.2
2017-Dec-08 19:01N 28°26' W 016°09'5 0.6
2017-Dec-08 11:01N 28°22' W 016°05'132.3
2017-Dec-08 11:00N 28°22' W 016°05'1020.7
2017-Dec-08 10:30N 28°28' W 016°15'0 0.0
2017-Dec-08 10:00N 28°28' W 016°15'510.6
2017-Dec-08 09:31N 28°25' W 016°10'4 0.3
2017-Dec-07 20:24N 28°23' W 016°06'1024.0
2017-Dec-07 20:01N 28°28' W 016°15'0 0.0
2017-Dec-07 19:30N 28°28' W 016°15'11 3.8
2017-Dec-07 16:38N 28°22' W 016°04'430.5
2017-Dec-07 16:31N 28°24' W 016°08'714.5
2017-Dec-07 16:01N 28°28' W 016°15'0 0.0
2017-Dec-07 15:30N 28°28' W 016°15'12 0.6
2017-Dec-06 20:31N 28°21' W 016°04'  

Dump ship's entire track history